createdAt,value
2018-06-28T00:00:07.175Z,3.97
2018-06-28T00:02:35.147Z,4.20
2018-06-28T00:05:03.249Z,4.30
2018-06-28T00:07:31.149Z,4.07
2018-06-28T00:09:59.054Z,4.00
2018-06-28T00:12:26.965Z,4.17
2018-06-28T00:14:54.818Z,4.07
2018-06-28T00:17:22.744Z,4.10
2018-06-28T00:19:50.674Z,4.13
2018-06-28T00:22:18.611Z,4.07
2018-06-28T00:24:46.537Z,4.50
2018-06-28T00:39:02.317Z,4.57
2018-06-28T00:41:30.215Z,4.57
2018-06-28T00:43:58.034Z,4.67
2018-06-28T00:46:25.881Z,4.40
2018-06-28T00:48:53.933Z,5.10
2018-06-28T00:51:21.809Z,5.07
2018-06-28T00:53:49.612Z,4.70
2018-06-28T00:56:17.587Z,4.70
2018-06-28T00:58:45.367Z,4.77
2018-06-28T01:01:13.213Z,4.60
2018-06-28T01:03:41.070Z,4.97
2018-06-28T01:06:08.879Z,5.20
2018-06-28T01:08:36.791Z,5.00
2018-06-28T01:11:04.704Z,5.00
2018-06-28T01:13:32.669Z,4.90
2018-06-28T01:16:00.487Z,5.20
2018-06-28T01:18:28.361Z,5.17
2018-06-28T01:20:56.159Z,4.97
2018-06-28T01:23:23.980Z,5.43
2018-06-28T01:25:51.765Z,5.33
2018-06-28T01:28:19.639Z,5.10
2018-06-28T01:30:47.509Z,4.80
2018-06-28T01:33:15.386Z,5.03
2018-06-28T01:35:43.292Z,5.70
2018-06-28T01:38:11.273Z,5.57
2018-06-28T01:40:39.115Z,5.63
2018-06-28T01:43:45.284Z,5.73
2018-06-28T01:46:13.252Z,5.47
2018-06-28T01:48:41.138Z,5.37
2018-06-28T01:51:09.063Z,5.53
2018-06-28T01:53:36.897Z,5.60
2018-06-28T01:56:04.839Z,5.60
2018-06-28T01:58:32.656Z,5.60
2018-06-28T02:01:00.465Z,5.60
2018-06-28T02:03:28.397Z,5.63
2018-06-28T02:05:56.329Z,5.83
2018-06-28T02:08:24.158Z,5.73
2018-06-28T02:10:52.035Z,5.43
2018-06-28T02:13:19.983Z,5.63
2018-06-28T02:15:47.877Z,6.00
2018-06-28T02:18:15.664Z,5.40
2018-06-28T02:20:43.519Z,5.53
2018-06-28T02:23:11.347Z,5.57
2018-06-28T02:25:39.200Z,5.67
2018-06-28T02:28:07.029Z,5.93
2018-06-28T02:30:34.910Z,5.23
2018-06-28T02:33:02.761Z,5.80
2018-06-28T02:35:30.575Z,6.13
2018-06-28T02:37:58.460Z,5.80
2018-06-28T02:40:26.235Z,6.23
2018-06-28T02:42:54.098Z,6.67
2018-06-28T02:45:21.944Z,6.33
2018-06-28T02:47:49.771Z,5.60
2018-06-28T02:50:17.699Z,6.00
2018-06-28T02:52:45.558Z,6.07
2018-06-28T02:55:13.399Z,6.27
2018-06-28T02:57:41.280Z,5.93
2018-06-28T03:00:09.151Z,6.10
2018-06-28T03:02:36.938Z,6.30
2018-06-28T03:05:04.818Z,6.30
2018-06-28T03:07:32.699Z,6.03
2018-06-28T03:10:00.508Z,5.57
2018-06-28T03:12:28.361Z,6.83
2018-06-28T03:14:56.209Z,5.97
2018-06-28T03:17:24.030Z,5.73
2018-06-28T03:19:51.915Z,5.93
2018-06-28T03:22:19.799Z,6.20
2018-06-28T03:24:47.590Z,5.60
2018-06-28T03:27:15.351Z,6.37
2018-06-28T03:29:43.137Z,5.67
2018-06-28T03:32:10.949Z,5.50
2018-06-28T03:34:38.840Z,5.87
2018-06-28T03:37:06.710Z,6.83
2018-06-28T03:39:34.587Z,6.40
2018-06-28T03:42:02.480Z,5.97
2018-06-28T03:44:30.339Z,5.73
2018-06-28T03:46:58.239Z,5.77
2018-06-28T03:49:26.121Z,5.97
2018-06-28T03:51:53.984Z,6.67
2018-06-28T03:54:21.831Z,6.33
2018-06-28T03:56:49.578Z,5.40
2018-06-28T03:59:17.572Z,6.23
2018-06-28T04:01:45.385Z,6.03
2018-06-28T04:04:13.199Z,5.70
2018-06-28T04:06:41.061Z,6.53
2018-06-28T04:09:10.319Z,6.37
2018-06-28T04:11:38.167Z,6.40
2018-06-28T04:14:06.113Z,5.70
2018-06-28T04:16:34.179Z,5.77
2018-06-28T04:19:02.034Z,6.13
2018-06-28T04:21:29.900Z,6.10
2018-06-28T04:23:57.790Z,6.20
2018-06-28T04:26:25.632Z,6.13
2018-06-28T04:28:53.443Z,6.03
2018-06-28T04:31:21.295Z,6.13
2018-06-28T04:33:49.116Z,5.57
2018-06-28T04:36:16.997Z,5.90
2018-06-28T04:38:44.770Z,6.27
2018-06-28T04:41:12.665Z,6.10
2018-06-28T04:43:40.510Z,5.87
2018-06-28T04:46:08.439Z,6.53
2018-06-28T04:48:36.309Z,6.53
2018-06-28T04:51:04.177Z,5.97
2018-06-28T04:53:32.055Z,6.15
2018-06-28T04:55:59.850Z,6.00
2018-06-28T04:58:27.725Z,5.97
2018-06-28T05:00:55.667Z,5.62
2018-06-28T05:03:23.508Z,6.30
2018-06-28T05:05:51.358Z,7.00
2018-06-28T05:08:19.236Z,7.17
2018-06-28T05:10:47.092Z,6.17
2018-06-28T05:13:44.943Z,6.35
2018-06-28T05:16:12.797Z,5.37
2018-06-28T05:18:40.630Z,5.65
2018-06-28T05:21:08.514Z,5.97
2018-06-28T05:23:36.393Z,6.08
2018-06-28T05:26:04.530Z,5.95
2018-06-28T05:28:32.328Z,5.53
2018-06-28T05:31:00.942Z,5.83
2018-06-28T05:33:28.833Z,6.00
2018-06-28T05:35:56.741Z,5.75
2018-06-28T05:38:24.645Z,5.40
2018-06-28T05:40:52.504Z,5.45
2018-06-28T05:43:20.358Z,5.70
2018-06-28T05:45:48.253Z,5.78
2018-06-28T05:48:16.165Z,5.95
2018-06-28T05:50:44.060Z,5.85
2018-06-28T05:53:11.932Z,6.30
2018-06-28T05:55:39.801Z,5.92
2018-06-28T05:58:07.621Z,5.65
2018-06-28T06:00:35.431Z,5.70
2018-06-28T06:03:03.280Z,5.55
2018-06-28T06:05:47.479Z,5.53
2018-06-28T06:08:15.317Z,5.30
2018-06-28T06:10:50.248Z,5.00
2018-06-28T06:13:18.033Z,5.55
2018-06-28T06:15:45.790Z,5.75
2018-06-28T06:18:13.731Z,5.37
2018-06-28T06:20:41.600Z,5.05
2018-06-28T06:23:13.258Z,5.65
2018-06-28T06:25:41.121Z,5.08
2018-06-28T06:28:08.960Z,4.87
2018-06-28T06:33:47.024Z,5.15
2018-06-28T06:36:14.890Z,4.55
2018-06-28T06:38:42.690Z,4.35
2018-06-28T06:41:10.510Z,5.10
2018-06-28T06:43:38.233Z,4.53
2018-06-28T06:46:06.036Z,4.78
2018-06-28T06:48:33.836Z,4.58
2018-06-28T06:51:01.646Z,4.40
2018-06-28T06:53:29.420Z,4.20
2018-06-28T06:56:16.644Z,4.15
2018-06-28T06:58:44.778Z,4.20
2018-06-28T07:01:12.556Z,4.40
2018-06-28T07:03:40.415Z,4.45
2018-06-28T07:06:08.281Z,4.00
2018-06-28T07:08:36.039Z,3.80
2018-06-28T07:11:03.804Z,4.70
2018-06-28T07:13:31.641Z,3.90
2018-06-28T07:15:59.538Z,4.05
2018-06-28T07:18:27.268Z,4.30
2018-06-28T07:20:55.116Z,4.10
2018-06-28T07:23:22.938Z,4.05
2018-06-28T07:25:50.764Z,4.37
2018-06-28T07:28:18.516Z,4.47
2018-06-28T07:30:46.372Z,3.92
2018-06-28T07:33:14.269Z,3.83
2018-06-28T07:35:42.107Z,4.00
2018-06-28T07:38:09.878Z,4.20
2018-06-28T07:40:37.674Z,4.20
2018-06-28T07:43:05.469Z,4.20
2018-06-28T07:45:33.324Z,4.33
2018-06-28T07:48:01.167Z,4.00
2018-06-28T07:50:29.173Z,3.72
2018-06-28T07:52:56.955Z,3.65
2018-06-28T07:55:24.791Z,3.75
2018-06-28T07:57:52.733Z,3.52
2018-06-28T08:00:20.400Z,3.67
2018-06-28T08:02:48.235Z,3.80
2018-06-28T08:05:16.079Z,3.77
2018-06-28T08:07:44.051Z,3.35
2018-06-28T08:10:12.502Z,3.40
2018-06-28T08:12:40.626Z,3.52
2018-06-28T08:15:09.001Z,3.72
2018-06-28T08:17:37.151Z,3.45
2018-06-28T08:20:06.425Z,3.62
2018-06-28T08:22:34.594Z,3.70
2018-06-28T08:25:02.884Z,3.52
2018-06-28T08:27:31.156Z,3.72
2018-06-28T08:29:59.718Z,3.75
2018-06-28T08:32:28.033Z,3.62
2018-06-28T08:34:56.309Z,3.72
2018-06-28T08:37:24.440Z,3.75
2018-06-28T08:39:52.928Z,3.45
2018-06-28T08:42:21.196Z,3.50
2018-06-28T08:44:49.316Z,3.20
2018-06-28T08:47:17.602Z,3.62
2018-06-28T08:49:45.824Z,3.22
2018-06-28T08:52:14.029Z,3.10
2018-06-28T08:54:42.282Z,3.35
2018-06-28T08:57:10.530Z,3.00
2018-06-28T08:59:38.796Z,3.60
2018-06-28T09:02:07.109Z,3.33
2018-06-28T09:04:35.393Z,3.45
2018-06-28T09:07:03.726Z,3.50
2018-06-28T09:09:31.971Z,3.50
2018-06-28T09:12:00.150Z,3.25
2018-06-28T09:17:26.331Z,3.60
2018-06-28T09:19:54.156Z,3.60
2018-06-28T09:22:22.053Z,3.33
2018-06-28T09:24:49.892Z,3.80
2018-06-28T09:27:17.797Z,3.50
2018-06-28T09:29:45.676Z,3.42
2018-06-28T09:32:13.551Z,3.30
2018-06-28T09:34:41.427Z,3.20
2018-06-28T09:37:09.425Z,3.33
2018-06-28T09:39:37.271Z,3.70
2018-06-28T09:42:06.004Z,3.33
2018-06-28T09:44:33.833Z,3.52
2018-06-28T09:47:01.557Z,3.42
2018-06-28T09:49:29.448Z,3.12
2018-06-28T09:51:57.368Z,3.55
2018-06-28T09:54:25.146Z,2.87
2018-06-28T09:56:53.063Z,3.65
2018-06-28T09:59:20.930Z,3.27
2018-06-28T10:01:48.807Z,3.20
2018-06-28T10:04:16.784Z,3.22
2018-06-28T10:06:44.867Z,3.20
2018-06-28T10:09:12.596Z,3.55
2018-06-28T10:11:40.517Z,3.30
2018-06-28T10:14:08.388Z,3.20
2018-06-28T10:16:36.216Z,3.40
2018-06-28T10:19:04.112Z,3.12
2018-06-28T10:21:31.958Z,2.80
2018-06-28T10:23:59.720Z,3.17
2018-06-28T10:26:27.505Z,3.05
2018-06-28T10:28:55.324Z,2.98
2018-06-28T10:31:23.140Z,3.25
2018-06-28T10:33:50.979Z,3.10
2018-06-28T10:36:18.836Z,2.90
2018-06-28T10:38:46.657Z,3.20
2018-06-28T10:41:14.463Z,3.42
2018-06-28T10:43:42.268Z,3.05
2018-06-28T10:46:10.112Z,3.27
2018-06-28T10:48:37.908Z,3.45
2018-06-28T10:51:06.030Z,3.10
2018-06-28T10:53:33.839Z,2.85
2018-06-28T10:56:01.691Z,3.20
2018-06-28T10:58:29.592Z,2.92
2018-06-28T11:00:57.506Z,3.02
2018-06-28T11:03:25.393Z,3.00
2018-06-28T11:05:53.175Z,3.40
2018-06-28T11:08:21.120Z,3.33
2018-06-28T11:10:48.897Z,2.83
2018-06-28T11:13:16.683Z,2.92
2018-06-28T11:15:44.634Z,3.30
2018-06-28T11:18:12.365Z,3.17
2018-06-28T11:20:40.084Z,3.60
2018-06-28T11:23:07.867Z,2.87
2018-06-28T11:25:35.644Z,3.00
2018-06-28T11:28:03.526Z,2.80
2018-06-28T11:30:31.284Z,2.58
2018-06-28T11:32:59.098Z,2.80
2018-06-28T11:35:26.852Z,3.58
2018-06-28T11:37:54.628Z,3.10
2018-06-28T11:40:22.419Z,2.80
2018-06-28T11:42:50.245Z,2.77
2018-06-28T11:45:18.005Z,3.15
2018-06-28T11:47:45.870Z,3.40
2018-06-28T11:50:13.660Z,2.70
2018-06-28T11:52:41.485Z,3.20
2018-06-28T11:55:09.227Z,3.08
2018-06-28T11:57:37.001Z,2.80
2018-06-28T12:00:05.282Z,2.58
2018-06-28T12:02:33.140Z,2.92
2018-06-28T12:05:01.051Z,2.80
2018-06-28T12:07:28.892Z,2.85
2018-06-28T12:09:56.585Z,2.70
2018-06-28T12:12:24.404Z,2.60
2018-06-28T12:14:52.212Z,2.80
2018-06-28T12:17:20.082Z,2.52
2018-06-28T12:19:48.018Z,2.40
2018-06-28T12:22:15.959Z,2.87
2018-06-28T12:24:43.715Z,2.60
2018-06-28T12:27:11.512Z,2.42
2018-06-28T12:29:39.340Z,2.65
2018-06-28T12:32:07.258Z,3.30
2018-06-28T12:34:35.105Z,2.70
2018-06-28T12:37:02.904Z,2.60
2018-06-28T12:39:30.674Z,2.83
2018-06-28T12:41:58.526Z,2.90
2018-06-28T12:44:26.360Z,2.83
2018-06-28T12:49:02.492Z,2.65
2018-06-28T12:51:41.881Z,2.70
2018-06-28T12:54:09.824Z,2.92
2018-06-28T12:56:38.876Z,2.67
2018-06-28T12:59:07.977Z,3.08
2018-06-28T13:01:35.805Z,2.70
2018-06-28T13:04:03.724Z,2.90
2018-06-28T13:06:31.534Z,3.47
2018-06-28T13:08:59.886Z,3.10
2018-06-28T13:11:27.999Z,3.37
2018-06-28T13:13:55.889Z,2.62
2018-06-28T13:16:26.792Z,2.65
2018-06-28T13:18:54.603Z,2.80
2018-06-28T13:21:22.507Z,2.47
2018-06-28T13:23:50.380Z,2.60
2018-06-28T13:26:18.608Z,2.52
2018-06-28T13:28:46.585Z,2.20
2018-06-28T13:31:14.432Z,2.20
2018-06-28T13:33:42.365Z,2.70
2018-06-28T13:36:10.223Z,2.70
2018-06-28T13:38:38.096Z,2.90
2018-06-28T13:41:06.277Z,2.42
2018-06-28T13:43:33.993Z,2.75
2018-06-28T13:46:02.121Z,2.40
2018-06-28T13:48:30.293Z,2.60
2018-06-28T13:50:58.154Z,2.60
2018-06-28T13:53:26.021Z,2.60
2018-06-28T13:55:53.911Z,2.58
2018-06-28T13:58:21.727Z,2.60
2018-06-28T14:00:49.639Z,2.60
2018-06-28T14:03:17.906Z,2.62
2018-06-28T14:05:45.704Z,2.50
2018-06-28T14:08:13.550Z,2.87
2018-06-28T14:10:41.391Z,2.50
2018-06-28T14:13:09.443Z,2.55
2018-06-28T14:15:37.265Z,2.70
2018-06-28T14:18:05.285Z,2.72
2018-06-28T14:20:33.154Z,2.58
2018-06-28T14:23:01.037Z,2.70
2018-06-28T14:25:28.981Z,2.80
2018-06-28T14:27:56.826Z,2.50
2018-06-28T14:30:24.646Z,2.35
2018-06-28T14:32:52.489Z,2.30
2018-06-28T14:35:20.288Z,2.72
2018-06-28T14:37:48.108Z,2.58
2018-06-28T14:40:16.024Z,2.37
2018-06-28T14:42:43.906Z,2.60
2018-06-28T14:45:11.820Z,2.50
2018-06-28T14:47:39.704Z,2.40
2018-06-28T14:50:07.645Z,2.70
2018-06-28T14:52:35.456Z,2.50
2018-06-28T14:55:03.721Z,2.35
2018-06-28T14:57:31.520Z,2.50
2018-06-28T14:59:59.393Z,2.50
2018-06-28T15:02:27.253Z,2.40
2018-06-28T15:04:55.225Z,2.50
2018-06-28T15:07:42.197Z,2.37
2018-06-28T15:10:10.160Z,2.47
2018-06-28T15:12:38.044Z,2.58
2018-06-28T15:15:06.216Z,2.75
2018-06-28T15:17:34.166Z,2.60
2018-06-28T15:20:01.991Z,2.20
2018-06-28T15:22:29.820Z,2.45
2018-06-28T15:24:57.622Z,2.77
2018-06-28T15:27:25.439Z,2.15
2018-06-28T15:29:53.298Z,2.55
2018-06-28T15:32:21.177Z,2.35
2018-06-28T15:34:49.020Z,2.40
2018-06-28T15:37:16.860Z,2.30
2018-06-28T15:39:44.682Z,2.50
2018-06-28T15:42:12.532Z,2.15
2018-06-28T15:44:40.379Z,2.42
2018-06-28T15:47:08.298Z,2.47
2018-06-28T15:49:36.136Z,2.72
2018-06-28T15:52:04.024Z,2.83
2018-06-28T15:54:31.810Z,3.12
2018-06-28T15:56:59.778Z,2.83
2018-06-28T15:59:27.677Z,3.02
2018-06-28T16:01:55.496Z,2.62
2018-06-28T16:04:23.305Z,2.90
2018-06-28T16:06:51.243Z,2.35
2018-06-28T16:09:19.076Z,2.70
2018-06-28T16:11:46.928Z,2.92
2018-06-28T16:14:14.791Z,3.22
2018-06-28T16:16:42.676Z,2.70
2018-06-28T16:19:10.590Z,3.08
2018-06-28T16:21:38.458Z,2.90
2018-06-28T16:24:06.342Z,3.15
2018-06-28T16:26:34.138Z,2.62
2018-06-28T16:29:02.045Z,2.90
2018-06-28T16:31:29.888Z,3.35
2018-06-28T16:33:57.686Z,3.62
2018-06-28T16:36:25.573Z,2.95
2018-06-28T16:38:53.483Z,3.12
2018-06-28T16:41:21.384Z,3.20
2018-06-28T16:43:49.729Z,3.20
2018-06-28T16:46:17.621Z,3.00
2018-06-28T16:48:45.432Z,2.75
2018-06-28T16:51:13.347Z,2.80
2018-06-28T16:53:41.243Z,3.15
2018-06-28T16:56:09.229Z,3.67
2018-06-28T16:58:37.148Z,4.10
2018-06-28T17:01:05.036Z,3.80
2018-06-28T17:03:32.912Z,3.98
2018-06-28T17:06:00.765Z,3.85
2018-06-28T17:08:28.632Z,3.47
2018-06-28T17:10:56.467Z,4.00
2018-06-28T17:13:24.230Z,3.37
2018-06-28T17:15:52.025Z,3.17
2018-06-28T17:18:19.941Z,3.35
2018-06-28T17:20:47.788Z,3.67
2018-06-28T17:23:15.608Z,3.20
2018-06-28T17:25:43.448Z,3.17
2018-06-28T17:28:11.325Z,3.35
2018-06-28T17:30:39.260Z,3.40
2018-06-28T17:33:07.281Z,3.40
2018-06-28T17:35:35.141Z,3.45
2018-06-28T17:38:03.078Z,3.50
2018-06-28T17:40:30.952Z,3.08
2018-06-28T17:43:12.213Z,3.55
2018-06-28T17:45:40.100Z,3.50
2018-06-28T17:48:08.008Z,4.17
2018-06-28T17:50:35.880Z,3.37
2018-06-28T17:53:03.723Z,3.80
2018-06-28T17:55:31.669Z,3.47
2018-06-28T17:57:59.540Z,3.87
2018-06-28T18:00:27.360Z,3.40
2018-06-28T18:02:55.224Z,3.58
2018-06-28T18:05:23.234Z,3.60
2018-06-28T18:07:51.085Z,3.50
2018-06-28T18:10:18.945Z,3.50
2018-06-28T18:12:46.868Z,4.20
2018-06-28T18:15:14.775Z,3.60
2018-06-28T18:17:42.517Z,3.42
2018-06-28T18:20:10.400Z,3.20
2018-06-28T18:22:39.287Z,3.27
2018-06-28T18:25:08.161Z,3.80
2018-06-28T18:27:46.408Z,3.45
2018-06-28T18:30:14.270Z,3.47
2018-06-28T18:32:42.184Z,3.33
2018-06-28T18:35:10.049Z,3.02
2018-06-28T18:37:37.910Z,3.40
2018-06-28T18:40:05.892Z,4.08
2018-06-28T18:42:33.885Z,3.72
2018-06-28T18:45:01.882Z,3.37
2018-06-28T18:47:29.788Z,3.95
2018-06-28T18:49:57.652Z,3.62
2018-06-28T18:52:25.578Z,3.98
2018-06-28T18:54:53.519Z,3.95
2018-06-28T18:57:21.592Z,4.00
2018-06-28T18:59:49.434Z,3.60
2018-06-28T19:02:17.363Z,3.50
2018-06-28T19:04:45.229Z,3.80
2018-06-28T19:07:13.149Z,3.75
2018-06-28T19:09:46.693Z,4.37
2018-06-28T19:12:14.624Z,3.95
2018-06-28T19:14:48.211Z,3.42
2018-06-28T19:17:16.175Z,3.47
2018-06-28T19:19:44.064Z,3.25
2018-06-28T19:22:17.677Z,3.42
2018-06-28T19:24:45.566Z,3.45
2018-06-28T19:27:33.133Z,3.10
2018-06-28T19:30:06.906Z,3.30
2018-06-28T19:32:34.804Z,3.40
2018-06-28T19:35:03.005Z,3.47
2018-06-28T19:37:36.641Z,3.40
2018-06-28T19:40:12.761Z,3.52
2018-06-28T19:42:46.453Z,3.58
2018-06-28T19:45:14.782Z,3.45
2018-06-28T19:47:42.669Z,3.50
2018-06-28T19:50:16.217Z,3.77
2018-06-28T19:52:49.798Z,3.92
2018-06-28T19:55:17.878Z,4.33
2018-06-28T19:57:45.716Z,4.47
2018-06-28T20:00:19.433Z,5.08
2018-06-28T20:02:53.163Z,4.62
2018-06-28T20:05:21.080Z,4.95
2018-06-28T20:07:48.899Z,4.55
2018-06-28T20:10:16.686Z,4.78
2018-06-28T20:12:50.279Z,4.75
2018-06-28T20:15:24.736Z,4.53
2018-06-28T20:18:01.890Z,4.83
2018-06-28T20:20:31.767Z,4.70
2018-06-28T20:22:59.649Z,4.65
2018-06-28T20:25:27.802Z,5.00
2018-06-28T20:28:01.426Z,5.10
2018-06-28T20:30:35.033Z,4.72
2018-06-28T20:33:08.644Z,4.90
2018-06-28T20:35:36.475Z,4.53
2018-06-28T20:38:04.304Z,4.17
2018-06-28T20:40:32.180Z,4.47
2018-06-28T20:42:59.940Z,4.20
2018-06-28T20:45:27.827Z,4.28
2018-06-28T20:47:55.687Z,4.70
2018-06-28T20:50:23.524Z,4.33
2018-06-28T20:52:51.365Z,4.40
2018-06-28T20:55:19.131Z,4.50
2018-06-28T20:57:47.055Z,4.30
2018-06-28T21:00:14.896Z,4.17
2018-06-28T21:02:42.843Z,4.10
2018-06-28T21:05:10.656Z,4.10
2018-06-28T21:07:45.054Z,4.00
2018-06-28T21:10:26.503Z,4.17
2018-06-28T21:12:57.636Z,4.17
2018-06-28T21:15:44.337Z,3.87
2018-06-28T21:18:31.077Z,3.80
2018-06-28T21:20:59.000Z,4.50
2018-06-28T21:23:26.875Z,4.58
2018-06-28T21:26:09.668Z,4.22
2018-06-28T21:28:45.873Z,4.20
2018-06-28T21:31:13.841Z,3.70
2018-06-28T21:33:41.751Z,3.95
2018-06-28T21:36:09.672Z,4.70
2018-06-28T21:38:37.512Z,3.77
2018-06-28T21:41:06.163Z,5.40
2018-06-28T21:43:34.005Z,4.60
2018-06-28T21:46:05.263Z,4.22
2018-06-28T21:48:34.198Z,4.65
2018-06-28T21:51:02.091Z,4.50
2018-06-28T21:53:29.888Z,4.08
2018-06-28T21:55:57.808Z,4.25
2018-06-28T21:58:38.809Z,4.00
2018-06-28T22:01:21.556Z,4.35
2018-06-28T22:04:06.457Z,4.33
2018-06-28T22:06:34.397Z,4.03
2018-06-28T22:09:23.819Z,3.90
2018-06-28T22:12:05.100Z,3.83
2018-06-28T22:14:32.925Z,3.90
2018-06-28T22:17:00.784Z,3.80
2018-06-28T22:19:39.120Z,3.77
2018-06-28T22:22:16.849Z,3.60
2018-06-28T22:24:44.722Z,3.65
2018-06-28T22:27:19.221Z,3.65
2018-06-28T22:29:47.125Z,4.17
2018-06-28T22:32:15.041Z,4.03
2018-06-28T22:34:46.767Z,3.92
2018-06-28T22:37:28.014Z,3.80
2018-06-28T22:39:55.832Z,3.50
2018-06-28T22:42:23.692Z,3.87
2018-06-28T22:44:51.439Z,3.58
2018-06-28T22:47:19.379Z,3.20
2018-06-28T22:49:47.238Z,3.65
2018-06-28T22:52:15.130Z,3.90
2018-06-28T22:54:43.000Z,3.45
2018-06-28T22:57:10.898Z,3.40
2018-06-28T22:59:38.748Z,3.62
2018-06-28T23:02:06.579Z,3.37
2018-06-28T23:04:34.498Z,3.45
2018-06-28T23:07:02.454Z,3.40
2018-06-28T23:09:30.260Z,3.50
2018-06-28T23:11:58.134Z,3.10
2018-06-28T23:14:25.991Z,3.42
2018-06-28T23:16:53.912Z,3.42
2018-06-28T23:19:21.743Z,3.40
2018-06-28T23:21:49.624Z,3.10
2018-06-28T23:24:17.536Z,3.10
2018-06-28T23:26:45.392Z,3.37
2018-06-28T23:29:13.327Z,3.00
2018-06-28T23:31:41.158Z,3.22
2018-06-28T23:34:09.025Z,3.00
2018-06-28T23:36:37.134Z,2.98
2018-06-28T23:39:08.151Z,3.27
2018-06-28T23:41:36.052Z,3.10
2018-06-28T23:44:04.680Z,3.10
2018-06-28T23:46:32.805Z,3.10
2018-06-28T23:49:00.775Z,2.95
2018-06-28T23:51:29.616Z,2.80
2018-06-28T23:53:57.481Z,2.85
2018-06-28T23:56:25.387Z,3.00
2018-06-28T23:58:53.309Z,2.80
